Time;durP1;ratioP1;P1;durP2;ratioP2;P2;SDS_P1;SDS_P2;PMS_P1;PMS_P2;Temp;Humidity;BMP_temperature;BMP_pressure;BME280_temperature;BME280_humidity;BME280_pressure;Samples;Min_cycle;Max_cycle;Signal;HPM_P1;HPM_P2
2021/10/27 00:01:13;;;;;;;;;103.75;103.50;14.30;47.10;;;;;;5075323;28;8754;-61
2021/10/27 00:03:39;;;;;;;;;105.00;104.75;14.10;47.40;;;;;;5075319;28;8766;-61
2021/10/27 00:06:05;;;;;;;;;102.75;99.75;14.30;47.40;;;;;;5075316;28;8927;-61
2021/10/27 00:08:31;;;;;;;;;105.75;105.50;14.30;47.10;;;;;;5075300;28;8861;-60
2021/10/27 00:10:57;;;;;;;;;107.50;106.00;14.30;46.90;;;;;;5075190;28;8869;-61
2021/10/27 00:13:23;;;;;;;;;95.00;94.75;14.40;47.00;;;;;;5075145;28;8762;-61
2021/10/27 00:15:49;;;;;;;;;104.75;100.50;14.40;46.90;;;;;;5075327;28;9492;-60
2021/10/27 00:18:16;;;;;;;;;101.25;98.25;14.40;46.70;;;;;;5075405;28;8994;-60
2021/10/27 00:20:41;;;;;;;;;97.75;97.25;14.40;46.90;;;;;;5074937;28;8802;-60
2021/10/27 00:23:07;;;;;;;;;103.00;100.50;14.40;46.90;;;;;;5074989;28;8762;-61
2021/10/27 00:25:33;;;;;;;;;106.00;103.75;14.40;46.80;;;;;;5093746;28;8776;-60
2021/10/27 00:27:59;;;;;;;;;96.25;94.00;14.30;47.00;;;;;;5095168;28;8736;-60
2021/10/27 00:30:25;;;;;;;;;100.75;98.75;14.30;47.00;;;;;;5095297;28;8744;-60
2021/10/27 00:32:51;;;;;;;;;102.75;100.00;14.30;47.00;;;;;;5095374;28;9437;-60
2021/10/27 00:35:17;;;;;;;;;105.75;104.75;14.30;47.00;;;;;;5095100;28;8760;-60
2021/10/27 00:37:42;;;;;;;;;99.50;95.25;14.20;47.20;;;;;;5094972;28;8808;-61
2021/10/27 00:40:09;;;;;;;;;92.50;91.25;14.30;47.00;;;;;;5095126;28;8898;-60
2021/10/27 00:42:35;;;;;;;;;92.50;91.75;14.10;47.20;;;;;;5094891;28;8760;-60
2021/10/27 00:45:01;;;;;;;;;97.75;86.75;14.00;47.50;;;;;;5094859;28;8763;-61
2021/10/27 00:47:27;;;;;;;;;86.75;76.25;14.10;47.60;;;;;;5095052;28;8902;-61
2021/10/27 00:49:53;;;;;;;;;93.25;90.75;14.00;47.50;;;;;;5094798;28;8808;-61
2021/10/27 00:52:19;;;;;;;;;97.50;96.75;14.00;47.60;;;;;;5095013;28;8775;-60
2021/10/27 00:54:48;;;;;;;;;88.25;85.50;14.00;47.60;;;;;;5095012;28;8836;-61
2021/10/27 00:57:16;;;;;;;;;91.25;88.00;14.10;47.30;;;;;;5094929;28;8882;-60
2021/10/27 00:59:45;;;;;;;;;89.25;83.50;14.10;47.20;;;;;;5076709;28;8788;-60
2021/10/27 01:02:12;;;;;;;;;93.25;90.00;14.00;47.50;;;;;;5094924;28;8755;-61
2021/10/27 01:04:39;;;;;;;;;92.25;89.75;13.90;47.70;;;;;;5094663;28;8764;-61
2021/10/27 01:07:05;;;;;;;;;91.50;90.00;13.90;47.70;;;;;;5094559;28;8771;-61
2021/10/27 01:09:32;;;;;;;;;91.75;88.75;13.90;47.80;;;;;;5094546;28;8895;-60
2021/10/27 01:12:02;;;;;;;;;90.25;85.25;14.00;47.80;;;;;;5094409;28;8798;-61
2021/10/27 01:14:45;;;;;;;;;95.75;93.50;14.00;47.60;;;;;;5094742;28;9487;-61
2021/10/27 01:17:15;;;;;;;;;95.00;94.50;14.00;47.80;;;;;;5094676;28;8791;-60
2021/10/27 01:19:44;;;;;;;;;95.50;91.75;13.90;47.70;;;;;;5094391;28;8808;-60
2021/10/27 01:22:15;;;;;;;;;93.00;90.75;13.80;48.10;;;;;;5094701;28;8760;-60
2021/10/27 01:24:41;;;;;;;;;91.50;86.50;13.90;48.00;;;;;;5094485;28;8771;-61
2021/10/27 01:27:08;;;;;;;;;57.75;45.75;13.90;48.00;;;;;;5094701;28;8783;-61
2021/10/27 01:29:34;;;;;;;;;85.75;78.50;13.90;48.00;;;;;;5094383;28;8929;-60
2021/10/27 01:32:00;;;;;;;;;90.00;85.50;14.00;47.80;;;;;;5094360;28;8784;-60
2021/10/27 01:34:26;;;;;;;;;89.50;85.25;14.00;47.70;;;;;;5094602;28;8828;-61
2021/10/27 01:36:52;;;;;;;;;87.50;84.50;14.00;47.70;;;;;;5094128;28;8799;-60
2021/10/27 01:39:18;;;;;;;;;88.25;83.50;14.10;47.50;;;;;;5094751;28;8876;-60
2021/10/27 01:41:44;;;;;;;;;94.50;93.50;14.10;47.50;;;;;;5098560;28;8776;-61
2021/10/27 01:44:10;;;;;;;;;94.25;93.00;14.10;47.30;;;;;;5098319;28;8947;-60
2021/10/27 01:46:38;;;;;;;;;106.25;104.75;14.10;47.30;;;;;;5098402;28;8802;-60
2021/10/27 01:49:06;;;;;;;;;105.50;104.50;14.10;46.90;;;;;;5098182;28;8787;-60
2021/10/27 01:51:34;;;;;;;;;102.50;101.50;14.10;47.10;;;;;;5096655;28;8844;-62
2021/10/27 01:54:00;;;;;;;;;111.00;109.75;14.00;46.90;;;;;;5098203;28;8858;-62
2021/10/27 01:56:27;;;;;;;;;118.50;114.75;13.90;46.90;;;;;;5098321;28;8764;-59
2021/10/27 01:58:54;;;;;;;;;123.25;117.25;13.90;46.90;;;;;;5097822;28;8791;-60
2021/10/27 02:01:20;;;;;;;;;120.00;119.25;13.80;47.10;;;;;;5098034;28;8763;-60
2021/10/27 02:03:46;;;;;;;;;117.00;115.50;13.80;47.00;;;;;;5098042;28;8889;-61
2021/10/27 02:06:12;;;;;;;;;119.75;118.00;13.80;47.00;;;;;;5098269;28;8822;-60
2021/10/27 02:08:38;;;;;;;;;103.50;102.75;13.70;47.30;;;;;;5097967;28;8756;-61
2021/10/27 02:11:04;;;;;;;;;121.25;113.75;13.70;47.30;;;;;;5098053;28;8771;-60
2021/10/27 02:13:31;;;;;;;;;115.75;112.00;13.70;47.20;;;;;;5097811;28;8780;-60
2021/10/27 02:15:57;;;;;;;;;99.75;90.25;13.70;47.30;;;;;;5097981;28;8866;-60
2021/10/27 02:18:23;;;;;;;;;107.00;105.75;13.70;47.30;;;;;;5098087;28;9497;-60
2021/10/27 02:20:49;;;;;;;;;115.25;114.00;13.70;47.30;;;;;;5097511;28;8803;-60
2021/10/27 02:23:16;;;;;;;;;114.00;113.50;13.60;47.50;;;;;;5097577;28;8775;-60
2021/10/27 02:25:42;;;;;;;;;117.00;115.50;13.60;47.50;;;;;;5097786;28;8763;-60
2021/10/27 02:28:08;;;;;;;;;110.25;108.75;13.60;47.60;;;;;;5097468;28;8870;-60
2021/10/27 02:30:34;;;;;;;;;102.50;100.75;13.60;47.50;;;;;;5097632;28;8807;-61
2021/10/27 02:33:04;;;;;;;;;111.75;106.50;13.60;47.50;;;;;;5097339;28;9583;-59
2021/10/27 02:35:31;;;;;;;;;104.75;104.00;13.60;47.40;;;;;;5097441;28;9366;-60
2021/10/27 02:37:57;;;;;;;;;109.00;107.00;13.50;47.50;;;;;;5097053;28;8798;-60
2021/10/27 02:40:24;;;;;;;;;99.25;98.25;13.40;47.80;;;;;;5097178;28;8860;-61
2021/10/27 02:42:51;;;;;;;;;103.75;100.75;13.40;48.00;;;;;;5097227;28;8891;-60
2021/10/27 02:45:18;;;;;;;;;97.25;93.00;13.30;48.20;;;;;;5097376;28;8752;-59
2021/10/27 02:47:44;;;;;;;;;105.50;103.50;13.20;48.40;;;;;;5097319;28;8811;-60
2021/10/27 02:50:13;;;;;;;;;113.75;110.00;13.30;48.20;;;;;;5097338;28;8772;-60
2021/10/27 02:52:40;;;;;;;;;107.00;105.75;13.30;48.10;;;;;;5095890;28;8767;-60
2021/10/27 02:55:07;;;;;;;;;111.50;109.75;13.30;48.30;;;;;;5096980;28;8845;-59
2021/10/27 02:57:33;;;;;;;;;112.25;107.50;13.40;48.20;;;;;;5097013;28;8771;-59
2021/10/27 02:59:59;;;;;;;;;111.00;107.50;13.40;48.10;;;;;;5078898;28;8811;-61
2021/10/27 03:02:25;;;;;;;;;107.50;106.50;13.40;48.10;;;;;;5096862;28;9652;-61
2021/10/27 03:04:51;;;;;;;;;102.25;100.50;13.40;48.00;;;;;;5096778;28;8763;-58
2021/10/27 03:07:17;;;;;;;;;105.75;103.25;13.40;48.10;;;;;;5097010;28;8760;-60
2021/10/27 03:09:43;;;;;;;;;113.25;109.50;13.40;48.20;;;;;;5096657;28;8772;-60
2021/10/27 03:12:09;;;;;;;;;103.00;101.50;13.40;48.20;;;;;;5096647;28;8858;-59
2021/10/27 03:14:35;;;;;;;;;106.50;103.25;13.40;48.20;;;;;;5096810;28;8772;-59
2021/10/27 03:17:01;;;;;;;;;104.75;102.00;13.30;48.30;;;;;;5096804;28;8772;-61
2021/10/27 03:19:26;;;;;;;;;107.75;106.25;13.30;48.40;;;;;;5096401;28;8815;-59
2021/10/27 03:21:52;;;;;;;;;102.50;98.75;13.30;48.20;;;;;;5096426;28;8764;-59
2021/10/27 03:24:18;;;;;;;;;107.75;104.75;13.30;48.60;;;;;;5096659;28;8767;-59
2021/10/27 03:26:44;;;;;;;;;99.00;99.00;13.30;48.60;;;;;;5096364;28;9445;-59
2021/10/27 03:29:10;;;;;;;;;106.50;101.75;13.30;48.80;;;;;;5096254;28;8760;-60
2021/10/27 03:31:36;;;;;;;;;112.50;111.50;13.30;48.90;;;;;;5096180;28;8860;-59
2021/10/27 03:34:02;;;;;;;;;98.25;97.50;13.30;50.00;;;;;;5096170;28;8764;-58
2021/10/27 03:36:28;;;;;;;;;108.25;105.25;13.30;49.00;;;;;;5096013;28;8806;-59
2021/10/27 03:38:55;;;;;;;;;102.25;99.75;13.40;49.20;;;;;;5093881;28;8787;-61
2021/10/27 03:41:20;;;;;;;;;98.00;96.25;13.40;49.80;;;;;;5079525;28;8824;-60
2021/10/27 03:43:46;;;;;;;;;106.25;99.75;13.50;50.00;;;;;;5091485;28;8787;-59
2021/10/27 03:46:12;;;;;;;;;99.50;96.75;13.60;49.50;;;;;;5095890;28;8845;-59
2021/10/27 03:48:40;;;;;;;;;94.75;91.00;13.70;49.40;;;;;;5080423;28;8781;-61
2021/10/27 03:51:10;;;;;;;;;102.00;101.25;13.70;49.30;;;;;;5075828;28;8793;-60
2021/10/27 03:53:36;;;;;;;;;118.75;117.00;13.80;48.90;;;;;;5075650;28;8859;-58
2021/10/27 03:56:02;;;;;;;;;151.25;149.50;13.80;48.70;;;;;;5075817;28;8766;-59
2021/10/27 03:58:30;;;;;;;;;149.50;145.75;13.80;47.50;;;;;;5075453;28;8801;-59
2021/10/27 04:00:56;;;;;;;;;144.25;140.75;13.80;47.50;;;;;;5057655;28;9495;-59
2021/10/27 04:03:23;;;;;;;;;143.00;141.25;13.70;47.90;;;;;;5074936;28;8766;-59
2021/10/27 04:05:50;;;;;;;;;147.25;145.00;13.70;48.10;;;;;;5075069;28;9628;-59
2021/10/27 04:08:16;;;;;;;;;152.75;148.00;13.80;48.10;;;;;;5075527;28;8761;-59
2021/10/27 04:10:45;;;;;;;;;153.75;146.75;13.70;48.50;;;;;;5075218;28;8777;-58
2021/10/27 04:13:15;;;;;;;;;127.00;122.00;13.70;48.40;;;;;;5075400;28;8804;-60
2021/10/27 04:15:41;;;;;;;;;129.75;126.00;13.80;49.00;;;;;;5075361;28;8766;-62
2021/10/27 04:18:07;;;;;;;;;127.50;122.50;13.80;48.80;;;;;;5074971;28;9468;-61
2021/10/27 04:20:33;;;;;;;;;110.75;106.75;13.90;48.80;;;;;;5074934;28;8913;-62
2021/10/27 04:22:59;;;;;;;;;111.25;110.00;13.90;48.80;;;;;;5074983;28;8956;-61
2021/10/27 04:25:25;;;;;;;;;103.00;98.00;14.00;48.80;;;;;;5075137;28;8778;-61
2021/10/27 04:27:50;;;;;;;;;117.00;114.25;14.00;48.60;;;;;;5075101;28;8770;-62
2021/10/27 04:30:16;;;;;;;;;111.50;107.50;14.00;48.40;;;;;;5074785;28;9419;-60
2021/10/27 04:32:42;;;;;;;;;121.75;119.75;14.00;48.60;;;;;;5074806;28;8762;-62
2021/10/27 04:35:09;;;;;;;;;121.00;114.50;14.00;48.40;;;;;;5074950;28;8769;-60
2021/10/27 04:37:40;;;;;;;;;128.50;125.00;14.10;48.30;;;;;;5074651;28;8782;-60
2021/10/27 04:40:10;;;;;;;;;121.50;117.25;14.10;48.10;;;;;;5081142;28;9418;-61
2021/10/27 04:42:37;;;;;;;;;127.75;124.75;14.00;48.10;;;;;;5077216;28;9423;-57
2021/10/27 04:45:06;;;;;;;;;146.75;141.75;14.10;48.30;;;;;;5082516;28;8829;-58
2021/10/27 04:47:32;;;;;;;;;152.00;145.25;14.10;48.30;;;;;;5082927;28;8805;-61
2021/10/27 04:49:58;;;;;;;;;136.75;129.00;14.10;48.00;;;;;;5074546;28;8855;-61
2021/10/27 04:52:25;;;;;;;;;149.50;146.50;14.10;48.20;;;;;;5074749;28;8824;-61
2021/10/27 04:54:50;;;;;;;;;142.50;138.75;14.10;48.30;;;;;;5057156;28;8807;-61
2021/10/27 04:57:16;;;;;;;;;125.25;124.00;14.10;48.00;;;;;;5090765;28;8796;-61
2021/10/27 04:59:44;;;;;;;;;120.50;115.75;14.10;48.10;;;;;;5083907;28;8824;-62
2021/10/27 05:02:14;;;;;;;;;108.75;104.75;14.10;48.10;;;;;;5076889;28;8778;-64
2021/10/27 05:04:41;;;;;;;;;104.75;99.75;14.20;48.20;;;;;;5074429;28;8754;-65
2021/10/27 05:07:09;;;;;;;;;96.50;96.25;14.10;47.90;;;;;;5074272;28;9442;-58
2021/10/27 05:09:35;;;;;;;;;110.75;110.00;14.10;48.00;;;;;;5073624;28;8785;-59
2021/10/27 05:12:04;;;;;;;;;102.00;99.25;14.00;48.20;;;;;;5074349;28;8765;-58
2021/10/27 05:14:35;;;;;;;;;94.00;92.75;13.90;48.20;;;;;;5073494;28;8766;-59
2021/10/27 05:17:02;;;;;;;;;99.00;98.25;13.90;48.60;;;;;;5056532;28;8793;-57
2021/10/27 05:19:27;;;;;;;;;95.25;94.75;13.90;48.60;;;;;;5074152;28;9397;-59
2021/10/27 05:21:53;;;;;;;;;94.75;93.25;13.90;48.60;;;;;;5073480;28;8800;-59
2021/10/27 05:24:19;;;;;;;;;96.75;96.00;13.90;48.40;;;;;;5073876;28;8762;-60
2021/10/27 05:26:45;;;;;;;;;101.50;100.75;13.90;48.60;;;;;;5074014;28;9412;-58
2021/10/27 05:29:11;;;;;;;;;96.00;92.75;14.00;48.70;;;;;;5074160;28;8766;-59
2021/10/27 05:31:37;;;;;;;;;106.00;103.50;14.00;48.70;;;;;;5074319;28;8785;-60
2021/10/27 05:34:03;;;;;;;;;106.00;101.75;14.10;48.60;;;;;;5074002;28;8788;-58
2021/10/27 05:36:29;;;;;;;;;126.25;121.25;14.00;48.90;;;;;;5073867;28;9492;-60
2021/10/27 05:38:55;;;;;;;;;122.00;118.00;13.90;48.90;;;;;;5074340;28;8843;-59
2021/10/27 05:41:21;;;;;;;;;120.75;119.50;14.10;48.90;;;;;;5073911;28;8770;-58
2021/10/27 05:43:48;;;;;;;;;141.25;134.50;14.10;48.50;;;;;;5073952;28;8770;-58
2021/10/27 05:46:14;;;;;;;;;141.75;136.75;14.20;48.20;;;;;;5073985;28;9486;-56
2021/10/27 05:48:44;;;;;;;;;141.00;135.25;14.20;48.30;;;;;;5074204;28;9417;-59
2021/10/27 05:51:19;;;;;;;;;143.25;139.50;14.20;48.20;;;;;;5073972;28;8865;-59
2021/10/27 05:56:29;;;;;;;;;149.75;139.75;14.10;48.20;;;;;;5073982;28;8766;-58
2021/10/27 05:58:55;;;;;;;;;143.50;139.25;14.10;48.40;;;;;;5073763;28;8851;-60
2021/10/27 06:01:21;;;;;;;;;141.25;138.25;14.10;48.30;;;;;;5073726;28;8806;-59
2021/10/27 06:03:47;;;;;;;;;129.50;128.25;14.10;48.40;;;;;;5073853;28;8777;-60
2021/10/27 06:06:13;;;;;;;;;100.50;96.25;14.20;48.40;;;;;;5073809;28;8758;-59
2021/10/27 06:08:39;;;;;;;;;92.00;92.00;14.20;49.40;;;;;;5073500;28;8765;-59
2021/10/27 06:11:09;;;;;;;;;108.00;106.50;14.30;48.30;;;;;;5073638;28;8765;-58
2021/10/27 06:13:37;;;;;;;;;108.25;106.50;14.30;48.40;;;;;;5073681;28;8790;-60
2021/10/27 06:16:04;;;;;;;;;110.00;106.75;14.30;48.30;;;;;;5073699;28;8776;-59
2021/10/27 06:18:30;;;;;;;;;114.75;111.50;14.30;48.60;;;;;;5073857;28;8812;-59
2021/10/27 06:20:56;;;;;;;;;112.00;109.25;14.40;48.50;;;;;;5073565;28;8821;-58
2021/10/27 06:23:22;;;;;;;;;125.25;123.25;14.40;48.40;;;;;;5073906;28;8749;-59
2021/10/27 06:25:50;;;;;;;;;108.00;104.50;14.50;48.40;;;;;;5074965;28;8777;-62
2021/10/27 06:28:21;;;;;;;;;120.50;118.75;14.50;48.20;;;;;;5077130;28;8803;-61
2021/10/27 06:30:59;;;;;;;;;107.75;107.75;14.50;48.00;;;;;;5077149;28;8872;-61
2021/10/27 06:36:05;;;;;;;;;109.00;108.50;14.50;48.20;;;;;;5076986;28;8816;-60
2021/10/27 06:46:38;;;;;;;;;122.75;122.25;14.40;48.60;;;;;;5076772;28;8794;-61
2021/10/27 06:49:05;;;;;;;;;132.25;130.00;14.30;48.70;;;;;;5076777;28;8809;-64
2021/10/27 06:51:32;;;;;;;;;126.75;122.25;14.40;48.80;;;;;;5076747;28;8862;-66
2021/10/27 06:53:58;;;;;;;;;111.25;101.75;14.50;48.80;;;;;;5077018;28;8770;-66
2021/10/27 06:56:24;;;;;;;;;106.50;104.00;14.50;48.70;;;;;;5076646;28;9493;-69
2021/10/27 07:15:13;;;;;;;;;98.25;96.75;14.60;48.90;;;;;;5076492;28;9344;-67
2021/10/27 07:17:49;;;;;;;;;89.75;86.25;14.60;49.10;;;;;;5076651;28;8805;-65
2021/10/27 07:20:15;;;;;;;;;95.25;93.50;14.70;48.80;;;;;;5076131;28;8947;-68
2021/10/27 07:22:41;;;;;;;;;88.50;87.00;14.80;48.80;;;;;;5058469;28;8800;-67
2021/10/27 07:25:09;;;;;;;;;89.00;84.25;14.80;48.90;;;;;;5075986;28;8773;-72
2021/10/27 07:27:35;;;;;;;;;87.00;84.50;14.70;48.90;;;;;;5076078;28;8774;-70
2021/10/27 07:30:00;;;;;;;;;90.25;87.00;14.60;49.30;;;;;;5076060;28;8782;-69
2021/10/27 07:32:28;;;;;;;;;86.25;79.75;14.60;49.30;;;;;;5075969;28;8773;-64
2021/10/27 07:35:04;;;;;;;;;84.00;77.75;14.60;49.40;;;;;;5076158;28;9464;-64
2021/10/27 07:42:54;;;;;;;;;86.00;79.75;14.70;49.00;;;;;;5075901;28;8793;-66
2021/10/27 07:45:26;;;;;;;;;87.00;78.25;14.80;49.00;;;;;;5075607;28;8790;-70
2021/10/27 07:47:53;;;;;;;;;84.50;74.75;14.80;48.90;;;;;;5075802;28;8798;-65
2021/10/27 07:50:19;;;;;;;;;86.00;79.50;14.90;48.90;;;;;;5075711;28;8876;-72
2021/10/27 07:52:44;;;;;;;;;86.75;81.50;15.00;48.70;;;;;;5075540;28;8871;-67
2021/10/27 07:55:11;;;;;;;;;89.00;81.25;15.10;48.60;;;;;;5075543;28;8800;-65
2021/10/27 07:57:37;;;;;;;;;87.75;78.50;15.20;48.30;;;;;;5075483;28;8888;-64
2021/10/27 08:00:04;;;;;;;;;86.00;79.25;15.30;48.20;;;;;;5075317;28;8908;-64
2021/10/27 08:02:30;;;;;;;;;90.00;87.00;15.30;48.40;;;;;;5075621;28;8745;-62
2021/10/27 08:04:56;;;;;;;;;91.75;91.00;15.40;48.10;;;;;;5075273;28;9384;-66
2021/10/27 08:07:22;;;;;;;;;89.00;80.25;15.40;48.50;;;;;;5075610;28;8758;-61
2021/10/27 08:09:47;;;;;;;;;87.75;86.25;15.50;48.00;;;;;;5075165;28;8782;-60
2021/10/27 08:12:14;;;;;;;;;90.75;90.25;15.60;48.00;;;;;;5075205;28;8778;-59
2021/10/27 08:14:39;;;;;;;;;85.25;79.25;15.60;47.70;;;;;;5075261;28;8747;-62
2021/10/27 08:17:05;;;;;;;;;83.75;77.25;15.60;47.80;;;;;;5075182;28;8840;-65
2021/10/27 08:19:31;;;;;;;;;82.50;76.25;15.60;47.50;;;;;;5075228;28;8848;-63
2021/10/27 08:21:59;;;;;;;;;81.25;71.75;15.40;47.20;;;;;;5057157;28;8805;-64
2021/10/27 08:24:26;;;;;;;;;85.25;75.75;15.30;47.60;;;;;;5074970;28;8778;-61
2021/10/27 08:26:55;;;;;;;;;83.25;77.75;15.30;48.10;;;;;;5057115;28;8778;-69
2021/10/27 08:29:27;;;;;;;;;81.00;72.50;15.30;49.10;;;;;;5074757;28;8758;-65
2021/10/27 08:31:57;;;;;;;;;80.25;71.25;15.40;48.20;;;;;;5074762;28;8778;-57
2021/10/27 08:34:35;;;;;;;;;81.25;72.25;15.40;48.20;;;;;;5075139;28;8847;-68
2021/10/27 08:37:01;;;;;;;;;81.00;74.75;15.50;47.80;;;;;;5074672;28;8790;-63
2021/10/27 08:39:27;;;;;;;;;78.75;70.00;15.50;47.50;;;;;;5074549;28;8797;-64
2021/10/27 08:41:53;;;;;;;;;81.75;75.00;15.60;47.30;;;;;;5074923;28;8758;-63
2021/10/27 08:44:19;;;;;;;;;85.50;81.75;15.70;47.40;;;;;;5074932;28;8777;-62
2021/10/27 08:46:46;;;;;;;;;83.00;72.00;15.80;47.50;;;;;;5074446;28;8793;-61
2021/10/27 08:49:17;;;;;;;;;74.00;61.00;15.90;46.70;;;;;;5074443;28;8855;-60
2021/10/27 08:51:44;;;;;;;;;79.50;66.75;15.90;46.50;;;;;;5074832;28;8758;-68
2021/10/27 08:54:11;;;;;;;;;80.25;72.50;15.90;46.40;;;;;;5074475;28;8773;-68
2021/10/27 08:56:43;;;;;;;;;83.50;75.75;15.90;46.50;;;;;;5085783;28;8763;-67
2021/10/27 08:59:23;;;;;;;;;80.25;68.25;15.90;46.60;;;;;;5093223;28;8819;-67
2021/10/27 09:01:58;;;;;;;;;75.00;63.75;16.10;46.50;;;;;;5092344;28;8861;-68
2021/10/27 09:07:08;;;;;;;;;73.75;62.75;16.10;46.30;;;;;;5093390;28;8836;-64
2021/10/27 10:04:42;;;;;;;;;67.00;53.50;18.80;39.70;;;;;;5004398;28;8808;-68
2021/10/27 10:07:10;;;;;;;;;69.75;57.50;19.00;38.60;;;;;;5015319;28;8787;-71
2021/10/27 10:09:39;;;;;;;;;67.25;56.00;19.40;38.30;;;;;;5015453;28;8796;-70
2021/10/27 10:12:06;;;;;;;;;61.75;51.00;19.60;37.30;;;;;;5015602;28;8792;-70
2021/10/27 10:14:32;;;;;;;;;67.25;55.50;20.00;36.60;;;;;;5015645;28;8784;-67
2021/10/27 10:17:04;;;;;;;;;63.00;51.50;20.40;35.90;;;;;;5015525;28;8820;-62
2021/10/27 10:19:30;;;;;;;;;62.50;51.50;20.60;34.90;;;;;;5015422;28;8808;-64
2021/10/27 10:21:56;;;;;;;;;65.00;53.25;20.90;34.60;;;;;;5014974;28;8830;-69
2021/10/27 10:24:25;;;;;;;;;59.25;49.25;21.40;33.80;;;;;;5015396;28;8761;-65
2021/10/27 10:26:53;;;;;;;;;56.50;47.50;21.90;32.70;;;;;;5015180;28;8769;-62
2021/10/27 10:29:39;;;;;;;;;66.00;55.25;22.90;31.30;;;;;;5015379;28;9395;-70
2021/10/27 10:32:39;;;;;;;;;63.00;52.50;24.20;29.80;;;;;;5015085;28;8780;-65
2021/10/27 10:35:25;;;;;;;;;59.75;49.25;25.60;28.40;;;;;;5039036;28;8772;-68
2021/10/27 10:38:03;;;;;;;;;54.25;46.25;26.50;26.90;;;;;;5054644;28;8908;-67
2021/10/27 10:40:37;;;;;;;;;60.75;50.50;27.40;25.50;;;;;;5054711;28;8804;-66
2021/10/27 10:55:40;;;;;;;;;61.75;51.75;29.10;24.70;;;;;;5054769;28;8786;-66
2021/10/27 11:00:00;;;;;;;;;55.33;46.67;31.90;21.50;;;;;;5054176;28;8775;-66
2021/10/27 11:37:55;;;;;;;;;50.33;43.67;36.20;17.70;;;;;;5087652;28;8810;-68
2021/10/27 11:40:42;;;;;;;;;53.33;45.33;36.10;17.50;;;;;;5085971;28;8830;-66
2021/10/27 11:48:24;;;;;;;;;52.33;45.33;36.30;17.50;;;;;;5084704;28;8800;-64
2021/10/27 11:50:50;;;;;;;;;53.67;46.33;36.20;17.30;;;;;;5087346;28;8815;-66
2021/10/27 11:53:27;;;;;;;;;52.67;45.33;36.30;17.30;;;;;;5080935;28;8790;-67
2021/10/27 11:55:55;;;;;;;;;47.67;41.33;36.20;17.50;;;;;;5087533;28;8841;-67
2021/10/27 11:58:40;;;;;;;;;46.67;40.33;36.40;17.00;;;;;;5090808;28;8767;-67
2021/10/27 12:01:07;;;;;;;;;51.33;44.00;36.30;16.90;;;;;;5091678;28;8788;-67
2021/10/27 12:03:41;;;;;;;;;50.33;43.33;36.10;16.70;;;;;;5091200;28;8772;-68
2021/10/27 12:06:15;;;;;;;;;35.67;33.33;36.00;17.00;;;;;;5092991;28;8767;-66
2021/10/27 12:16:34;;;;;;;;;52.67;44.67;35.30;17.50;;;;;;5091796;28;8840;-67
2021/10/27 12:19:05;;;;;;;;;48.67;42.00;35.20;17.40;;;;;;5091744;28;8771;-67
2021/10/27 12:21:36;;;;;;;;;52.33;44.33;34.40;17.30;;;;;;5094784;28;8799;-67
2021/10/27 12:24:03;;;;;;;;;51.67;44.33;33.90;17.80;;;;;;5085128;28;8796;-68
2021/10/27 12:26:59;;;;;;;;;48.67;41.67;33.30;17.90;;;;;;5083901;28;8905;-67
2021/10/27 12:29:26;;;;;;;;;49.67;43.00;32.70;18.00;;;;;;5057174;28;8820;-66
2021/10/27 12:32:07;;;;;;;;;48.33;41.33;31.30;18.60;;;;;;5057099;28;8862;-66
2021/10/27 12:34:47;;;;;;;;;47.33;40.67;30.90;19.10;;;;;;5074890;28;8836;-67
2021/10/27 12:37:47;;;;;;;;;48.67;41.67;30.90;19.40;;;;;;5077580;28;8797;-68
2021/10/27 12:40:30;;;;;;;;;53.67;46.33;31.00;19.20;;;;;;5083828;28;9436;-66
2021/10/27 12:43:08;;;;;;;;;52.00;44.00;31.10;19.50;;;;;;5086126;28;8788;-66
2021/10/27 12:45:51;;;;;;;;;52.67;44.67;31.30;19.50;;;;;;5085801;28;8824;-66
2021/10/27 12:48:19;;;;;;;;;51.67;44.00;31.40;19.70;;;;;;5077138;28;8806;-67
2021/10/27 12:51:09;;;;;;;;;56.33;47.00;31.30;19.80;;;;;;5082662;28;8782;-65
2021/10/27 12:53:40;;;;;;;;;54.67;45.67;31.00;19.70;;;;;;5077706;28;8793;-66
2021/10/27 12:56:08;;;;;;;;;52.33;45.33;30.80;19.80;;;;;;5085871;28;8905;-67
2021/10/27 12:58:41;;;;;;;;;54.33;46.00;30.80;19.80;;;;;;5081386;28;8779;-67
2021/10/27 13:01:32;;;;;;;;;50.33;43.00;30.90;20.00;;;;;;5083216;28;8809;-66
2021/10/27 13:04:26;;;;;;;;;50.00;43.00;31.00;19.70;;;;;;5082653;28;8881;-67
2021/10/27 13:31:02;;;;;;;;;52.00;44.00;30.10;20.00;;;;;;5094610;28;8723;-67
2021/10/27 13:33:29;;;;;;;;;50.67;44.00;29.80;20.10;;;;;;5078750;28;8912;-68
2021/10/27 13:35:55;;;;;;;;;54.00;46.00;29.60;20.30;;;;;;5089277;28;8796;-66
2021/10/27 13:38:25;;;;;;;;;51.00;44.00;29.30;20.40;;;;;;5085333;28;8790;-68
2021/10/27 13:40:50;;;;;;;;;49.33;42.00;28.90;20.50;;;;;;5078402;28;9576;-69
2021/10/27 13:43:40;;;;;;;;;55.33;47.00;28.50;20.90;;;;;;5083851;28;8764;-65
2021/10/27 14:10:19;;;;;;;;;55.75;47.25;24.50;24.40;;;;;;5078462;28;8903;-65
2021/10/27 14:12:54;;;;;;;;;59.50;50.00;24.20;25.10;;;;;;5090395;28;8786;-64
2021/10/27 14:15:39;;;;;;;;;60.75;50.75;23.70;25.50;;;;;;5086691;28;8776;-69
2021/10/27 14:51:03;;;;;;;;;55.75;47.00;21.10;28.80;;;;;;5095638;28;8767;-63
2021/10/27 15:21:15;;;;;;;;;60.00;49.75;20.10;30.90;;;;;;5078482;28;8806;-62
2021/10/27 15:29:05;;;;;;;;;106.75;105.50;20.00;31.70;;;;;;5089741;28;8887;-72
2021/10/27 15:34:06;;;;;;;;;143.00;136.00;19.80;32.50;;;;;;5077682;28;8778;-69
2021/10/27 15:52:44;;;;;;;;;188.25;179.50;19.30;34.90;;;;;;5095899;28;8787;-64
2021/10/27 15:55:10;;;;;;;;;179.50;170.75;19.20;35.10;;;;;;5095754;28;8856;-59
2021/10/27 15:57:36;;;;;;;;;186.00;181.00;19.20;35.40;;;;;;5095649;28;8780;-58
2021/10/27 16:00:04;;;;;;;;;208.00;199.00;19.10;35.80;;;;;;5094991;28;8811;-57
2021/10/27 16:02:30;;;;;;;;;220.00;211.75;19.00;36.10;;;;;;5086466;28;8768;-64
2021/10/27 16:04:56;;;;;;;;;253.00;238.75;18.90;36.20;;;;;;5066607;28;8851;-59
2021/10/27 16:07:24;;;;;;;;;252.75;240.00;18.80;36.70;;;;;;5090999;28;8821;-61
2021/10/27 16:09:50;;;;;;;;;238.50;224.00;18.80;36.70;;;;;;5083875;28;8780;-60
2021/10/27 16:12:17;;;;;;;;;248.00;229.50;18.70;37.00;;;;;;5091631;28;8919;-59
2021/10/27 16:14:45;;;;;;;;;280.00;270.50;18.60;37.20;;;;;;5093788;28;8926;-59
2021/10/27 16:17:11;;;;;;;;;267.25;257.25;18.60;37.50;;;;;;5094318;28;8807;-56
2021/10/27 16:19:37;;;;;;;;;305.25;288.25;18.50;37.70;;;;;;5095179;28;8779;-55
2021/10/27 16:22:04;;;;;;;;;312.50;293.75;18.50;38.00;;;;;;5095104;28;8873;-57
2021/10/27 16:24:30;;;;;;;;;323.00;301.25;18.30;38.20;;;;;;5094799;28;9449;-59
2021/10/27 16:26:58;;;;;;;;;299.00;286.75;18.30;38.50;;;;;;5094985;28;8768;-59
2021/10/27 16:29:24;;;;;;;;;317.75;291.75;18.20;38.60;;;;;;5095014;28;8779;-59
2021/10/27 16:31:50;;;;;;;;;288.00;274.75;18.10;38.60;;;;;;5095299;28;8794;-60
2021/10/27 16:34:16;;;;;;;;;286.75;267.50;18.20;38.40;;;;;;5077193;28;8772;-55
2021/10/27 16:36:43;;;;;;;;;292.75;272.75;18.10;38.70;;;;;;5094785;28;8980;-58
2021/10/27 16:39:11;;;;;;;;;292.00;273.00;18.10;40.20;;;;;;5094720;28;8771;-60
2021/10/27 16:41:38;;;;;;;;;280.25;267.00;18.00;38.80;;;;;;5094548;28;8834;-59
2021/10/27 16:44:04;;;;;;;;;283.00;265.00;18.00;39.30;;;;;;5094721;28;8783;-59
2021/10/27 16:46:30;;;;;;;;;264.00;251.00;18.00;39.30;;;;;;5094545;28;8808;-59
2021/10/27 16:48:56;;;;;;;;;260.25;246.25;17.90;39.40;;;;;;5094768;28;8784;-60
2021/10/27 16:51:22;;;;;;;;;286.75;265.50;17.90;39.30;;;;;;5094748;28;8780;-59
2021/10/27 16:53:48;;;;;;;;;270.25;259.75;17.80;39.30;;;;;;5094616;28;8763;-59
2021/10/27 16:56:14;;;;;;;;;265.25;253.25;17.80;39.10;;;;;;5079685;28;8794;-59
2021/10/27 16:58:41;;;;;;;;;284.50;273.00;17.80;39.00;;;;;;5082913;28;9423;-60
2021/10/27 17:01:07;;;;;;;;;297.00;287.75;17.80;39.40;;;;;;5080325;28;8787;-60
2021/10/27 17:03:33;;;;;;;;;299.00;283.75;17.70;39.50;;;;;;5088637;28;8801;-61
2021/10/27 17:05:59;;;;;;;;;303.75;282.25;17.60;39.80;;;;;;5085301;28;9491;-61
2021/10/27 17:08:25;;;;;;;;;298.00;278.00;17.60;40.10;;;;;;5078942;28;8896;-61
2021/10/27 17:10:53;;;;;;;;;270.50;256.50;17.50;40.00;;;;;;5081232;28;8780;-62
2021/10/27 17:13:21;;;;;;;;;296.00;280.00;17.50;40.10;;;;;;5080055;28;8778;-61
2021/10/27 17:15:47;;;;;;;;;404.25;369.50;17.50;40.40;;;;;;5085751;28;8804;-62
2021/10/27 17:18:16;;;;;;;;;455.00;422.40;17.50;39.90;;;;;;5081135;28;11073;-62
2021/10/27 17:20:46;;;;;;;;;444.50;409.75;17.50;39.80;;;;;;5094498;28;8804;-62